Time;durP1;ratioP1;P1;durP2;ratioP2;P2;SDS_P1;SDS_P2;PMS_P1;PMS_P2;Temp;Humidity;BMP_temperature;BMP_pressure;BME280_temperature;BME280_humidity;BME280_pressure;Samples;Min_cycle;Max_cycle;Signal;HPM_P1;HPM_P2
2022/09/08 00:00:46;;;;;;;22.08;19.80;;;;;;;;;;5074544;28;20032;-72
2022/09/08 00:03:14;;;;;;;20.83;18.52;;;;;;;;;;5074808;28;20402;-72
2022/09/08 00:05:43;;;;;;;24.88;20.50;;;;;;;;;;5056641;28;20066;-72
2022/09/08 00:08:09;;;;;;;26.65;23.42;;;;;;;;;;5042447;28;20032;-72
2022/09/08 00:10:36;;;;;;;23.67;21.17;;;;;;;;;;5074418;28;20020;-72
2022/09/08 00:13:02;;;;;;;29.77;23.95;;;;;;;;;;5074342;28;20109;-72
2022/09/08 00:15:28;;;;;;;25.52;22.17;;;;;;;;;;5073292;28;20478;-71
2022/09/08 00:17:54;;;;;;;28.38;23.35;;;;;;;;;;5073209;28;20025;-72
2022/09/08 00:20:20;;;;;;;29.00;24.45;;;;;;;;;;5074397;28;20273;-71
2022/09/08 00:22:46;;;;;;;23.83;20.27;;;;;;;;;;5074385;28;20013;-71
2022/09/08 00:25:12;;;;;;;24.13;21.45;;;;;;;;;;5074761;28;20028;-71
2022/09/08 00:27:38;;;;;;;26.75;21.75;;;;;;;;;;5073017;28;20025;-71
2022/09/08 00:30:04;;;;;;;26.23;21.95;;;;;;;;;;5073900;28;20032;-71
2022/09/08 00:32:30;;;;;;;22.67;20.25;;;;;;;;;;5074075;28;20024;-71
2022/09/08 00:34:58;;;;;;;25.17;21.90;;;;;;;;;;5073937;28;20021;-72
2022/09/08 00:37:26;;;;;;;30.73;26.08;;;;;;;;;;5072884;28;20070;-71
2022/09/08 00:39:52;;;;;;;25.70;22.95;;;;;;;;;;5056057;28;20513;-72
2022/09/08 00:42:17;;;;;;;24.60;21.17;;;;;;;;;;5073865;28;20028;-72
2022/09/08 00:44:50;;;;;;;24.50;21.95;;;;;;;;;;5073709;28;20031;-72
2022/09/08 00:47:16;;;;;;;28.75;24.88;;;;;;;;;;5091631;22;20430;-72
2022/09/08 00:49:43;;;;;;;31.35;26.45;;;;;;;;;;5090437;28;20110;-75
2022/09/08 00:52:10;;;;;;;30.15;24.23;;;;;;;;;;5075948;28;20026;-75
2022/09/08 00:54:36;;;;;;;32.72;28.00;;;;;;;;;;5074850;28;20020;-74
2022/09/08 00:57:03;;;;;;;29.90;25.27;;;;;;;;;;5073305;28;20024;-72
2022/09/08 00:59:32;;;;;;;28.00;25.10;;;;;;;;;;5072849;28;20016;-72
2022/09/08 01:01:59;;;;;;;33.03;27.90;;;;;;;;;;5075506;28;20024;-73
2022/09/08 01:04:25;;;;;;;35.10;29.65;;;;;;;;;;5076444;28;20130;-72
2022/09/08 01:15:11;;;;;;;27.25;24.35;;;;;;;;;;5073766;28;20044;-74
2022/09/08 01:17:38;;;;;;;30.67;23.15;;;;;;;;;;5068156;28;20039;-74
2022/09/08 01:20:07;;;;;;;24.42;21.85;;;;;;;;;;5073238;28;20020;-72
2022/09/08 01:22:33;;;;;;;27.45;22.73;;;;;;;;;;5069040;28;20025;-74
2022/09/08 01:25:02;;;;;;;28.10;24.73;;;;;;;;;;5073288;28;20023;-74
2022/09/08 01:27:30;;;;;;;31.88;24.63;;;;;;;;;;5072673;28;20032;-73
2022/09/08 01:30:05;;;;;;;28.90;25.08;;;;;;;;;;5069967;28;20077;-73
2022/09/08 01:32:33;;;;;;;30.63;25.13;;;;;;;;;;5078563;28;20021;-75
2022/09/08 01:34:59;;;;;;;26.45;23.65;;;;;;;;;;5073345;28;20108;-72
2022/09/08 01:37:25;;;;;;;32.22;28.83;;;;;;;;;;5072022;28;20056;-75
2022/09/08 01:39:51;;;;;;;33.78;28.15;;;;;;;;;;5073264;28;20090;-75
2022/09/08 01:42:17;;;;;;;30.02;26.38;;;;;;;;;;5073083;28;20048;-73
2022/09/08 01:44:43;;;;;;;33.70;28.50;;;;;;;;;;5072752;28;20020;-76
2022/09/08 01:47:10;;;;;;;34.42;27.42;;;;;;;;;;5071808;28;20139;-75
2022/09/08 01:49:36;;;;;;;33.25;27.92;;;;;;;;;;5073795;28;20016;-75
2022/09/08 01:52:02;;;;;;;29.88;26.20;;;;;;;;;;5081801;28;20054;-74
2022/09/08 01:54:28;;;;;;;35.92;27.80;;;;;;;;;;5072700;28;20020;-77
2022/09/08 01:56:55;;;;;;;32.25;28.10;;;;;;;;;;5072864;28;20020;-74
2022/09/08 01:59:21;;;;;;;29.95;26.02;;;;;;;;;;5077937;28;21366;-75
2022/09/08 02:01:47;;;;;;;31.30;26.02;;;;;;;;;;5063953;28;20074;-74
2022/09/08 02:04:13;;;;;;;33.58;25.33;;;;;;;;;;5076833;28;20367;-75
2022/09/08 02:06:39;;;;;;;32.40;25.50;;;;;;;;;;5072581;28;20027;-75
2022/09/08 02:09:05;;;;;;;31.63;27.63;;;;;;;;;;5071937;28;20021;-73
2022/09/08 02:11:31;;;;;;;37.00;30.08;;;;;;;;;;5072309;28;20367;-71
2022/09/08 02:13:58;;;;;;;35.70;30.60;;;;;;;;;;5072541;28;20024;-74
2022/09/08 02:16:25;;;;;;;34.90;29.92;;;;;;;;;;5072778;28;20027;-74
2022/09/08 02:18:53;;;;;;;38.90;28.83;;;;;;;;;;5079204;28;20032;-74
2022/09/08 02:21:19;;;;;;;34.70;27.70;;;;;;;;;;5072787;28;20044;-74
2022/09/08 02:23:47;;;;;;;32.78;27.60;;;;;;;;;;5072730;28;20397;-75
2022/09/08 02:26:16;;;;;;;32.28;27.33;;;;;;;;;;5072245;28;20028;-75
2022/09/08 02:28:42;;;;;;;39.35;27.25;;;;;;;;;;5075453;28;20493;-74
2022/09/08 02:31:09;;;;;;;33.25;27.98;;;;;;;;;;5075746;28;20066;-73
2022/09/08 02:33:35;;;;;;;30.55;27.30;;;;;;;;;;5072710;28;20231;-75
2022/09/08 02:36:02;;;;;;;31.52;26.55;;;;;;;;;;5068215;28;20571;-75
2022/09/08 02:38:28;;;;;;;33.08;28.38;;;;;;;;;;5062897;28;20069;-75
2022/09/08 02:40:54;;;;;;;28.30;25.25;;;;;;;;;;5077111;28;20032;-73
2022/09/08 02:43:21;;;;;;;32.72;26.50;;;;;;;;;;5078137;28;20107;-75
2022/09/08 02:45:47;;;;;;;26.17;22.13;;;;;;;;;;5082829;28;20123;-74
2022/09/08 02:48:13;;;;;;;26.15;21.73;;;;;;;;;;5080917;28;20028;-74
2022/09/08 02:50:39;;;;;;;27.02;21.88;;;;;;;;;;5073921;28;20016;-72
2022/09/08 02:53:05;;;;;;;25.90;21.70;;;;;;;;;;5079312;28;20035;-75
2022/09/08 02:55:32;;;;;;;23.50;20.25;;;;;;;;;;5078201;28;20401;-73
2022/09/08 02:57:58;;;;;;;28.98;21.88;;;;;;;;;;5071737;28;20021;-74
2022/09/08 03:00:30;;;;;;;24.85;22.08;;;;;;;;;;5078012;28;20028;-73
2022/09/08 03:02:56;;;;;;;25.58;21.30;;;;;;;;;;5071356;28;20118;-75
2022/09/08 03:05:22;;;;;;;26.90;21.77;;;;;;;;;;5071546;28;20048;-74
2022/09/08 03:07:48;;;;;;;26.50;20.33;;;;;;;;;;5070526;28;20048;-74
2022/09/08 03:10:14;;;;;;;23.48;20.73;;;;;;;;;;5071533;28;20024;-75
2022/09/08 03:12:40;;;;;;;23.02;20.08;;;;;;;;;;5070988;28;20056;-74
2022/09/08 03:15:07;;;;;;;25.40;19.05;;;;;;;;;;5070233;28;20091;-74
2022/09/08 03:17:33;;;;;;;23.83;19.02;;;;;;;;;;5070179;28;20111;-74
2022/09/08 03:19:59;;;;;;;23.90;21.40;;;;;;;;;;5071216;28;20108;-74
2022/09/08 03:22:25;;;;;;;23.65;20.33;;;;;;;;;;5070820;28;20562;-72
2022/09/08 03:24:51;;;;;;;23.30;20.40;;;;;;;;;;5071072;28;20020;-71
2022/09/08 03:27:19;;;;;;;23.55;18.30;;;;;;;;;;5065439;28;20028;-74
2022/09/08 03:29:45;;;;;;;27.70;20.83;;;;;;;;;;5076421;28;20378;-73
2022/09/08 03:32:11;;;;;;;24.13;20.13;;;;;;;;;;5070982;28;20092;-72
2022/09/08 03:34:37;;;;;;;22.55;19.13;;;;;;;;;;5070691;28;20043;-75
2022/09/08 03:37:03;;;;;;;20.52;18.38;;;;;;;;;;5070640;28;20397;-71
2022/09/08 03:39:29;;;;;;;23.15;20.50;;;;;;;;;;5070199;28;20492;-70
2022/09/08 03:41:55;;;;;;;25.55;20.38;;;;;;;;;;5070986;28;20024;-74
2022/09/08 03:44:21;;;;;;;24.50;20.40;;;;;;;;;;5066327;28;20034;-75
2022/09/08 03:46:47;;;;;;;23.42;18.20;;;;;;;;;;5070714;28;20029;-73
2022/09/08 03:49:13;;;;;;;24.27;19.60;;;;;;;;;;5069946;28;20021;-74
2022/09/08 03:51:39;;;;;;;20.35;18.25;;;;;;;;;;5080910;28;20391;-74
2022/09/08 03:56:50;;;;;;;20.48;18.30;;;;;;;;;;5070705;28;20039;-74
2022/09/08 03:59:16;;;;;;;20.52;18.27;;;;;;;;;;5076074;28;20028;-73
2022/09/08 04:01:42;;;;;;;22.15;16.40;;;;;;;;;;5060711;28;20370;-73
2022/09/08 04:04:08;;;;;;;19.83;17.70;;;;;;;;;;5075670;28;20029;-73
2022/09/08 04:06:34;;;;;;;22.90;17.42;;;;;;;;;;5070490;28;20470;-71
2022/09/08 04:09:00;;;;;;;19.25;16.02;;;;;;;;;;5069648;28;20028;-74
2022/09/08 04:11:26;;;;;;;20.15;16.45;;;;;;;;;;5070547;28;20017;-74
2022/09/08 04:13:52;;;;;;;19.83;16.05;;;;;;;;;;5070497;28;20033;-75
2022/09/08 04:16:18;;;;;;;23.25;16.45;;;;;;;;;;5070625;28;20103;-74
2022/09/08 04:18:45;;;;;;;22.00;16.48;;;;;;;;;;5069555;28;20033;-74
2022/09/08 04:21:11;;;;;;;18.77;15.38;;;;;;;;;;5070600;28;20024;-72
2022/09/08 04:23:38;;;;;;;19.98;16.65;;;;;;;;;;5070387;28;20032;-73
2022/09/08 04:26:10;;;;;;;20.10;15.88;;;;;;;;;;5070259;28;20017;-74
2022/09/08 04:28:36;;;;;;;17.95;14.95;;;;;;;;;;5072295;28;20028;-74
2022/09/08 04:31:03;;;;;;;18.20;16.15;;;;;;;;;;5073768;28;20029;-74
2022/09/08 04:33:30;;;;;;;17.70;15.93;;;;;;;;;;5070368;28;20017;-75
2022/09/08 04:35:56;;;;;;;16.77;14.88;;;;;;;;;;5070445;28;20500;-74
2022/09/08 04:38:22;;;;;;;18.40;14.55;;;;;;;;;;5078394;28;20107;-74
2022/09/08 04:40:48;;;;;;;20.17;14.10;;;;;;;;;;5077462;28;20024;-74
2022/09/08 04:43:14;;;;;;;18.15;14.70;;;;;;;;;;5074053;28;20024;-74
2022/09/08 04:45:40;;;;;;;16.05;14.15;;;;;;;;;;5073942;28;20445;-75
2022/09/08 04:48:06;;;;;;;16.73;13.43;;;;;;;;;;5086827;28;20048;-74
2022/09/08 04:50:32;;;;;;;14.20;12.55;;;;;;;;;;5083064;28;20047;-74
2022/09/08 04:52:58;;;;;;;15.10;11.55;;;;;;;;;;5075104;28;20050;-75
2022/09/08 04:55:24;;;;;;;14.70;11.93;;;;;;;;;;5067245;28;20035;-75
2022/09/08 04:57:50;;;;;;;13.95;10.98;;;;;;;;;;5075454;28;20052;-75
2022/09/08 05:00:18;;;;;;;11.70;8.93;;;;;;;;;;5072433;28;20498;-73
2022/09/08 05:02:46;;;;;;;12.73;10.20;;;;;;;;;;5076563;28;20020;-75
2022/09/08 05:05:11;;;;;;;12.02;9.70;;;;;;;;;;5065731;28;20451;-75
2022/09/08 05:07:37;;;;;;;10.77;9.38;;;;;;;;;;5076539;28;20060;-74
2022/09/08 05:10:04;;;;;;;13.88;9.45;;;;;;;;;;5073665;28;20020;-74
2022/09/08 05:12:30;;;;;;;13.20;9.48;;;;;;;;;;5073430;28;20037;-71
2022/09/08 05:14:56;;;;;;;10.93;9.07;;;;;;;;;;5072363;28;20043;-75
2022/09/08 05:17:21;;;;;;;10.48;9.45;;;;;;;;;;5072243;28;20028;-74
2022/09/08 05:19:49;;;;;;;12.02;10.27;;;;;;;;;;5073352;28;20032;-74
2022/09/08 05:22:15;;;;;;;11.30;9.52;;;;;;;;;;5067779;28;20055;-72
2022/09/08 05:24:41;;;;;;;12.75;10.20;;;;;;;;;;5073270;28;20036;-74
2022/09/08 05:27:07;;;;;;;11.13;9.95;;;;;;;;;;5072417;28;20021;-73
2022/09/08 05:29:33;;;;;;;16.98;10.82;;;;;;;;;;5079254;28;20077;-76
2022/09/08 05:31:59;;;;;;;13.35;10.23;;;;;;;;;;5073057;28;20482;-75
2022/09/08 05:34:25;;;;;;;12.07;10.63;;;;;;;;;;5072830;28;20385;-75
2022/09/08 05:36:51;;;;;;;16.83;10.45;;;;;;;;;;5072719;28;20078;-75
2022/09/08 05:39:17;;;;;;;13.52;9.15;;;;;;;;;;5072243;28;20028;-74
2022/09/08 05:41:43;;;;;;;12.18;10.02;;;;;;;;;;5076723;28;20440;-74
2022/09/08 05:44:11;;;;;;;15.68;11.75;;;;;;;;;;5086950;28;20039;-74
2022/09/08 05:46:37;;;;;;;9.85;8.70;;;;;;;;;;5055384;28;20028;-72
2022/09/08 05:49:03;;;;;;;9.98;8.98;;;;;;;;;;5074890;28;20127;-74
2022/09/08 05:51:32;;;;;;;9.40;8.43;;;;;;;;;;5070375;28;20061;-73
2022/09/08 05:53:59;;;;;;;12.45;9.18;;;;;;;;;;5086187;28;20066;-71
2022/09/08 05:56:28;;;;;;;9.95;8.50;;;;;;;;;;5101908;28;20111;-76
2022/09/08 05:58:55;;;;;;;10.45;8.63;;;;;;;;;;5087874;28;20385;-73
2022/09/08 06:01:21;;;;;;;11.32;9.82;;;;;;;;;;5084927;28;20016;-74
2022/09/08 06:03:51;;;;;;;17.05;9.23;;;;;;;;;;5070709;28;20024;-74
2022/09/08 06:06:17;;;;;;;10.50;9.27;;;;;;;;;;5070542;28;20016;-74
2022/09/08 06:08:43;;;;;;;13.90;9.32;;;;;;;;;;5070017;28;20498;-74
2022/09/08 06:11:09;;;;;;;11.07;9.98;;;;;;;;;;5070307;28;20017;-75
2022/09/08 06:13:36;;;;;;;13.45;9.95;;;;;;;;;;5070740;28;20115;-74
2022/09/08 06:16:04;;;;;;;13.38;9.40;;;;;;;;;;5070696;28;20104;-74
2022/09/08 06:18:33;;;;;;;11.13;9.80;;;;;;;;;;5062965;28;20116;-75
2022/09/08 06:20:59;;;;;;;19.05;11.07;;;;;;;;;;5076228;28;20027;-76
2022/09/08 06:23:25;;;;;;;11.70;10.27;;;;;;;;;;5063847;28;20425;-76
2022/09/08 06:25:51;;;;;;;12.18;10.45;;;;;;;;;;5072094;28;20096;-72
2022/09/08 06:28:25;;;;;;;13.18;10.57;;;;;;;;;;5068987;28;20036;-71
2022/09/08 06:30:53;;;;;;;15.52;10.85;;;;;;;;;;5071817;28;20020;-73
2022/09/08 06:33:23;;;;;;;14.75;10.38;;;;;;;;;;5072010;28;20387;-74
2022/09/08 06:35:56;;;;;;;13.05;10.30;;;;;;;;;;5071706;28;20056;-72
2022/09/08 06:38:28;;;;;;;18.63;10.82;;;;;;;;;;5069950;28;20120;-72
2022/09/08 06:40:59;;;;;;;16.38;10.75;;;;;;;;;;5070239;28;20381;-71
2022/09/08 06:43:45;;;;;;;14.75;11.13;;;;;;;;;;5070246;28;20111;-74
2022/09/08 06:46:20;;;;;;;16.88;10.20;;;;;;;;;;5070302;28;20111;-74
2022/09/08 06:48:46;;;;;;;13.80;10.27;;;;;;;;;;5074343;22;20036;-72
2022/09/08 06:51:17;;;;;;;15.50;9.23;;;;;;;;;;5049895;28;20025;-73
2022/09/08 06:53:46;;;;;;;16.05;9.40;;;;;;;;;;5051000;28;20059;-73
2022/09/08 06:56:15;;;;;;;12.18;8.70;;;;;;;;;;5050677;28;20333;-73
2022/09/08 06:58:44;;;;;;;15.02;10.15;;;;;;;;;;5048429;28;20033;-73
2022/09/08 07:01:22;;;;;;;10.98;9.05;;;;;;;;;;5050028;28;20031;-73
2022/09/08 07:03:58;;;;;;;13.32;10.48;;;;;;;;;;5050378;28;20183;-73
2022/09/08 07:06:25;;;;;;;14.65;10.13;;;;;;;;;;5050357;28;20005;-74
2022/09/08 07:08:51;;;;;;;16.67;9.75;;;;;;;;;;5047168;28;20075;-72
2022/09/08 07:11:23;;;;;;;11.93;8.75;;;;;;;;;;5048794;28;20426;-72
2022/09/08 07:14:00;;;;;;;9.70;7.50;;;;;;;;;;5048177;28;20017;-73
2022/09/08 07:16:34;;;;;;;12.52;9.18;;;;;;;;;;5048582;28;20048;-72
2022/09/08 07:19:00;;;;;;;12.60;8.00;;;;;;;;;;5050101;28;20095;-73
2022/09/08 07:21:29;;;;;;;15.10;9.05;;;;;;;;;;5046726;28;20428;-73
2022/09/08 07:23:58;;;;;;;12.00;8.90;;;;;;;;;;5050957;28;20068;-72
2022/09/08 07:26:27;;;;;;;11.20;8.02;;;;;;;;;;5041178;28;20025;-72
2022/09/08 07:28:54;;;;;;;12.48;9.63;;;;;;;;;;5031771;28;20013;-72
2022/09/08 07:31:22;;;;;;;14.32;9.75;;;;;;;;;;5043187;28;20017;-73
2022/09/08 07:34:08;;;;;;;13.85;9.48;;;;;;;;;;5051304;28;20104;-72
2022/09/08 07:36:38;;;;;;;12.25;9.48;;;;;;;;;;5038587;28;20054;-72
2022/09/08 07:39:13;;;;;;;12.95;9.40;;;;;;;;;;5026218;28;20498;-72
2022/09/08 07:41:48;;;;;;;14.32;8.93;;;;;;;;;;5050612;28;20556;-72
2022/09/08 07:44:16;;;;;;;12.60;10.15;;;;;;;;;;5050241;28;20390;-72
2022/09/08 07:46:48;;;;;;;10.75;9.52;;;;;;;;;;5047980;28;20017;-72
2022/09/08 07:49:26;;;;;;;10.75;9.38;;;;;;;;;;5049737;28;20039;-72
2022/09/08 07:51:56;;;;;;;13.57;8.38;;;;;;;;;;5044707;28;20399;-72
2022/09/08 07:54:43;;;;;;;10.48;8.95;;;;;;;;;;5047000;28;20036;-72
2022/09/08 07:57:14;;;;;;;15.07;10.07;;;;;;;;;;5031122;28;20173;-72
2022/09/08 07:59:52;;;;;;;10.75;9.63;;;;;;;;;;5030964;28;20363;-72
2022/09/08 08:02:36;;;;;;;9.95;8.95;;;;;;;;;;5044392;28;20037;-72
2022/09/08 08:05:08;;;;;;;9.77;8.77;;;;;;;;;;5038858;28;20028;-75
2022/09/08 08:07:57;;;;;;;10.63;8.95;;;;;;;;;;5049593;28;20021;-72
2022/09/08 08:10:25;;;;;;;10.75;9.48;;;;;;;;;;5050648;28;20021;-72
2022/09/08 08:13:06;;;;;;;16.52;10.18;;;;;;;;;;5030976;28;20390;-72
2022/09/08 08:15:38;;;;;;;11.95;10.30;;;;;;;;;;5051878;28;20033;-74
2022/09/08 08:18:03;;;;;;;;;;;;;;;;;;5053640;28;20025;-74
2022/09/08 08:20:40;;;;;;;13.82;10.52;;;;;;;;;;5033552;28;20286;-74
2022/09/08 08:23:33;;;;;;;12.90;10.57;;;;;;;;;;5053802;28;20057;-74
2022/09/08 08:26:18;;;;;;;14.10;11.20;;;;;;;;;;5023628;28;20128;-73
2022/09/08 08:28:44;;;;;;;18.08;12.02;;;;;;;;;;5035540;28;20446;-73
2022/09/08 08:31:35;;;;;;;16.98;12.05;;;;;;;;;;5053789;28;20013;-73
2022/09/08 08:34:04;;;;;;;16.17;13.02;;;;;;;;;;5054031;28;20398;-72
2022/09/08 08:36:33;;;;;;;17.98;13.43;;;;;;;;;;5023186;28;20031;-74
2022/09/08 08:39:16;;;;;;;15.95;13.55;;;;;;;;;;5053122;28;20028;-73
2022/09/08 08:41:45;;;;;;;15.32;12.75;;;;;;;;;;5053918;28;20028;-73
2022/09/08 08:44:22;;;;;;;19.35;14.32;;;;;;;;;;5053684;28;20029;-73
2022/09/08 08:46:51;;;;;;;17.08;15.13;;;;;;;;;;5053698;28;20356;-73
2022/09/08 08:49:20;;;;;;;20.10;16.00;;;;;;;;;;5052967;28;20380;-73
2022/09/08 08:52:24;;;;;;;24.92;19.10;;;;;;;;;;5054115;28;20013;-73
2022/09/08 08:54:50;;;;;;;21.67;17.55;;;;;;;;;;4959846;28;20035;-73
2022/09/08 08:57:35;;;;;;;19.08;16.48;;;;;;;;;;4971685;28;20065;-73
2022/09/08 09:00:09;;;;;;;16.35;12.35;;;;;;;;;;5020795;28;20036;-73
2022/09/08 09:02:35;;;;;;;14.00;10.23;;;;;;;;;;5035604;28;20399;-73
2022/09/08 09:05:14;;;;;;;11.10;8.52;;;;;;;;;;5035615;28;20021;-73
2022/09/08 09:07:58;;;;;;;9.80;8.43;;;;;;;;;;5052616;28;20025;-73
2022/09/08 09:10:44;;;;;;;9.38;7.93;;;;;;;;;;5053601;28;20075;-73
2022/09/08 09:13:10;;;;;;;10.13;7.82;;;;;;;;;;5053329;28;20028;-74
2022/09/08 09:15:52;;;;;;;10.75;7.13;;;;;;;;;;5053705;28;20452;-74
2022/09/08 09:18:33;;;;;;;11.85;9.55;;;;;;;;;;5040671;28;20025;-74
2022/09/08 09:21:03;;;;;;;11.20;8.85;;;;;;;;;;5039316;28;20044;-73
2022/09/08 09:23:34;;;;;;;8.85;7.30;;;;;;;;;;5053235;28;20033;-73
2022/09/08 09:26:01;;;;;;;11.93;7.30;;;;;;;;;;5052733;28;20049;-73
2022/09/08 09:28:39;;;;;;;7.05;5.95;;;;;;;;;;5049962;28;20113;-73
2022/09/08 09:31:05;;;;;;;10.13;6.47;;;;;;;;;;5052689;28;20066;-72
2022/09/08 09:33:31;;;;;;;10.55;6.53;;;;;;;;;;5035413;28;20653;-75
2022/09/08 09:36:00;;;;;;;8.02;6.68;;;;;;;;;;5034798;28;20131;-73
2022/09/08 09:38:43;;;;;;;8.35;6.35;;;;;;;;;;5034386;28;20565;-73
2022/09/08 09:41:15;;;;;;;7.95;5.53;;;;;;;;;;5052580;28;20100;-73
2022/09/08 09:44:00;;;;;;;8.65;6.22;;;;;;;;;;5052898;28;20053;-73
2022/09/08 09:46:45;;;;;;;8.20;6.03;;;;;;;;;;5052332;28;20021;-73
2022/09/08 09:49:21;;;;;;;8.65;6.95;;;;;;;;;;5047918;28;20033;-73
2022/09/08 09:51:50;;;;;;;12.40;8.13;;;;;;;;;;5035149;28;20040;-73
2022/09/08 09:54:37;;;;;;;11.05;7.68;;;;;;;;;;5052341;28;20028;-73
2022/09/08 09:57:06;;;;;;;10.38;8.45;;;;;;;;;;5051143;28;20051;-72
2022/09/08 09:59:51;;;;;;;12.57;9.35;;;;;;;;;;5050887;28;20025;-73
2022/09/08 10:02:35;;;;;;;10.15;8.75;;;;;;;;;;5033042;28;20560;-73
2022/09/08 10:05:12;;;;;;;9.10;7.68;;;;;;;;;;5045836;28;20510;-72
2022/09/08 10:07:41;;;;;;;9.43;8.13;;;;;;;;;;5051639;28;20075;-73
2022/09/08 10:10:14;;;;;;;14.25;9.02;;;;;;;;;;5034033;28;20082;-72
2022/09/08 10:12:57;;;;;;;14.02;9.48;;;;;;;;;;5052517;28;20100;-74
2022/09/08 10:15:41;;;;;;;13.93;9.43;;;;;;;;;;5051609;28;20025;-73
2022/09/08 10:18:20;;;;;;;12.18;10.30;;;;;;;;;;5043085;28;20441;-73
2022/09/08 10:21:18;;;;;;;11.85;9.93;;;;;;;;;;5041904;28;20056;-73
2022/09/08 10:23:47;;;;;;;15.35;11.10;;;;;;;;;;5007749;28;20049;-73
2022/09/08 10:26:19;;;;;;;13.60;10.18;;;;;;;;;;5051127;28;20051;-73
2022/09/08 10:29:01;;;;;;;16.02;12.38;;;;;;;;;;5050776;28;20036;-73
2022/09/08 10:31:43;;;;;;;38.88;14.77;;;;;;;;;;5033529;28;20450;-73
2022/09/08 10:34:12;;;;;;;28.75;14.77;;;;;;;;;;5051506;28;20028;-73
2022/09/08 10:36:47;;;;;;;18.75;13.02;;;;;;;;;;5030497;28;20522;-73
2022/09/08 10:39:33;;;;;;;20.25;14.05;;;;;;;;;;5036656;28;20048;-74
2022/09/08 10:41:59;;;;;;;30.23;16.42;;;;;;;;;;5032689;28;20032;-74
2022/09/08 10:44:28;;;;;;;29.17;18.63;;;;;;;;;;5050112;28;20020;-74
2022/09/08 10:46:54;;;;;;;22.25;16.83;;;;;;;;;;5051429;28;20032;-73
2022/09/08 10:49:20;;;;;;;30.25;20.58;;;;;;;;;;5032610;28;20033;-73
2022/09/08 10:51:58;;;;;;;28.27;19.42;;;;;;;;;;5051330;28;20021;-74
2022/09/08 10:54:43;;;;;;;49.75;25.75;;;;;;;;;;5051603;28;20035;-75
2022/09/08 10:57:29;;;;;;;46.65;22.25;;;;;;;;;;5050892;28;20160;-74
2022/09/08 11:00:05;;;;;;;37.30;23.88;;;;;;;;;;5051365;28;20087;-74
2022/09/08 11:02:49;;;;;;;28.88;20.83;;;;;;;;;;5032338;28;20115;-74
2022/09/08 11:05:18;;;;;;;43.08;23.35;;;;;;;;;;5027315;28;20049;-75
2022/09/08 11:07:48;;;;;;;33.40;23.80;;;;;;;;;;5046703;28;20368;-74
2022/09/08 11:10:22;;;;;;;27.65;18.05;;;;;;;;;;5050422;28;20122;-74
2022/09/08 11:12:50;;;;;;;34.00;20.30;;;;;;;;;;5051354;28;20055;-75
2022/09/08 11:15:34;;;;;;;26.20;18.35;;;;;;;;;;5052085;28;20120;-76
2022/09/08 11:18:21;;;;;;;31.73;20.33;;;;;;;;;;5032420;28;20021;-75
2022/09/08 11:20:56;;;;;;;18.98;13.73;;;;;;;;;;5041218;28;20036;-75
2022/09/08 11:23:31;;;;;;;16.38;11.93;;;;;;;;;;5051131;28;20057;-75
2022/09/08 11:26:09;;;;;;;31.15;14.15;;;;;;;;;;5050860;28;20549;-74
2022/09/08 11:28:41;;;;;;;21.05;11.43;;;;;;;;;;5050323;28;20029;-74
2022/09/08 11:31:16;;;;;;;12.55;9.23;;;;;;;;;;5050124;28;20386;-74
2022/09/08 11:33:58;;;;;;;16.00;11.10;;;;;;;;;;5051309;28;20524;-74
2022/09/08 11:36:36;;;;;;;10.07;8.30;;;;;;;;;;5050800;28;20056;-74
2022/09/08 11:39:05;;;;;;;12.05;9.90;;;;;;;;;;5049868;28;20048;-74
2022/09/08 11:41:48;;;;;;;15.70;10.65;;;;;;;;;;5050899;28;20127;-74
2022/09/08 11:44:22;;;;;;;15.75;9.15;;;;;;;;;;5050578;28;20028;-74
2022/09/08 11:46:54;;;;;;;8.82;7.20;;;;;;;;;;5050818;28;20025;-74
2022/09/08 11:49:26;;;;;;;12.15;7.55;;;;;;;;;;5048889;28;20047;-74
2022/09/08 11:52:14;;;;;;;11.27;7.45;;;;;;;;;;5032816;28;20044;-74
2022/09/08 11:54:49;;;;;;;17.95;9.18;;;;;;;;;;5050630;28;20017;-74
2022/09/08 11:57:24;;;;;;;16.65;9.20;;;;;;;;;;5050171;28;20047;-74
2022/09/08 12:00:03;;;;;;;13.35;10.10;;;;;;;;;;5043446;28;20021;-74
2022/09/08 12:02:35;;;;;;;12.30;8.93;;;;;;;;;;5050650;28;20029;-74
2022/09/08 12:05:20;;;;;;;11.35;8.00;;;;;;;;;;5050749;28;20025;-76
2022/09/08 12:07:46;;;;;;;13.48;7.70;;;;;;;;;;5049906;28;20013;-74
2022/09/08 12:10:22;;;;;;;12.48;8.93;;;;;;;;;;5050460;28;20032;-74
2022/09/08 12:12:51;;;;;;;15.48;10.43;;;;;;;;;;5050208;28;20052;-74
2022/09/08 12:15:30;;;;;;;11.85;8.48;;;;;;;;;;5050679;28;20411;-74
2022/09/08 12:18:11;;;;;;;10.48;7.28;;;;;;;;;;5041296;28;20061;-74
2022/09/08 12:21:03;;;;;;;7.63;5.90;;;;;;;;;;5050483;28;20029;-74
2022/09/08 12:23:48;;;;;;;9.13;7.30;;;;;;;;;;5039899;28;20120;-74
2022/09/08 12:26:17;;;;;;;7.18;5.85;;;;;;;;;;5050169;28;20079;-74
2022/09/08 12:29:00;;;;;;;8.20;5.15;;;;;;;;;;5031998;28;20071;-74
2022/09/08 12:31:44;;;;;;;6.50;4.15;;;;;;;;;;5050296;28;20029;-74
2022/09/08 12:34:10;;;;;;;6.45;4.75;;;;;;;;;;5050439;28;20447;-74
2022/09/08 12:36:39;;;;;;;4.50;3.70;;;;;;;;;;5050078;28;20208;-75
2022/09/08 12:39:04;;;;;;;7.90;3.85;;;;;;;;;;5031863;28;20115;-74
2022/09/08 12:41:49;;;;;;;3.15;2.88;;;;;;;;;;5050057;28;20076;-75
2022/09/08 12:44:40;;;;;;;3.00;2.70;;;;;;;;;;5049914;28;20057;-75
2022/09/08 12:50:22;;;;;;;6.22;4.80;;;;;;;;;;5092189;22;20351;-76
2022/09/08 12:52:56;;;;;;;4.53;2.53;;;;;;;;;;5053142;28;20487;-78
2022/09/08 12:55:32;;;;;;;2.78;2.53;;;;;;;;;;5032366;28;20033;-77
2022/09/08 12:58:01;;;;;;;5.28;3.08;;;;;;;;;;5049119;28;20029;-77
2022/09/08 13:00:35;;;;;;;2.70;2.22;;;;;;;;;;5068117;28;20070;-75
2022/09/08 13:03:04;;;;;;;3.13;2.58;;;;;;;;;;5073507;28;20036;-76
2022/09/08 13:05:49;;;;;;;2.65;2.45;;;;;;;;;;5055583;28;20502;-76
2022/09/08 13:08:15;;;;;;;2.47;2.25;;;;;;;;;;5042143;28;20028;-77
2022/09/08 13:10:44;;;;;;;2.67;2.47;;;;;;;;;;5073663;28;20031;-75
2022/09/08 13:13:31;;;;;;;3.08;2.40;;;;;;;;;;5055559;28;20025;-78
2022/09/08 13:15:57;;;;;;;1.80;1.58;;;;;;;;;;5056542;28;20020;-76
2022/09/08 13:18:23;;;;;;;8.00;2.25;;;;;;;;;;5049042;28;20520;-78
2022/09/08 13:20:52;;;;;;;3.58;2.33;;;;;;;;;;5057785;28;20036;-78
2022/09/08 13:23:18;;;;;;;2.65;2.03;;;;;;;;;;5055772;28;20025;-77
2022/09/08 13:25:53;;;;;;;2.92;2.25;;;;;;;;;;5073267;28;20020;-77
2022/09/08 13:28:22;;;;;;;4.43;2.90;;;;;;;;;;5071862;28;20474;-75
2022/09/08 13:31:07;;;;;;;5.03;2.50;;;;;;;;;;5049756;28;20367;-77
2022/09/08 13:33:48;;;;;;;5.80;3.60;;;;;;;;;;5073318;28;20120;-77
2022/09/08 13:36:17;;;;;;;4.32;2.72;;;;;;;;;;5072916;28;20020;-76
2022/09/08 13:39:05;;;;;;;3.58;2.38;;;;;;;;;;5072269;28;20033;-76
2022/09/08 13:41:38;;;;;;;6.35;1.98;;;;;;;;;;5059727;28;20032;-77
2022/09/08 13:44:14;;;;;;;3.30;2.17;;;;;;;;;;5072507;28;20028;-76
2022/09/08 13:46:58;;;;;;;3.47;2.58;;;;;;;;;;5073282;28;20031;-76
2022/09/08 13:49:30;;;;;;;3.03;1.65;;;;;;;;;;5071861;28;20115;-76
2022/09/08 13:52:09;;;;;;;2.88;1.40;;;;;;;;;;5073090;28;20054;-76
2022/09/08 13:54:35;;;;;;;1.48;1.38;;;;;;;;;;5072318;28;20012;-76
2022/09/08 13:57:21;;;;;;;3.78;1.50;;;;;;;;;;5072692;28;20616;-76
2022/09/08 13:59:47;;;;;;;1.88;1.40;;;;;;;;;;5051110;28;20486;-76
2022/09/08 14:02:22;;;;;;;2.22;1.30;;;;;;;;;;5054421;28;20039;-74
2022/09/08 14:04:56;;;;;;;2.05;0.80;;;;;;;;;;5058467;28;20025;-76
2022/09/08 14:07:25;;;;;;;1.33;1.02;;;;;;;;;;5071393;28;20020;-74
2022/09/08 14:10:10;;;;;;;1.30;1.17;;;;;;;;;;5072191;28;20032;-77
2022/09/08 14:12:36;;;;;;;1.33;0.88;;;;;;;;;;5071129;28;20218;-75
2022/09/08 14:15:07;;;;;;;0.80;0.73;;;;;;;;;;5071815;28;20020;-75
2022/09/08 14:17:56;;;;;;;4.47;1.02;;;;;;;;;;5063205;28;20100;-75
2022/09/08 14:20:30;;;;;;;1.63;0.80;;;;;;;;;;5071573;28;20032;-76
2022/09/08 14:22:56;;;;;;;2.65;0.90;;;;;;;;;;5053792;28;20032;-76
2022/09/08 14:25:25;;;;;;;3.17;0.70;;;;;;;;;;5072020;28;20047;-76
2022/09/08 14:27:54;;;;;;;3.08;0.70;;;;;;;;;;5052736;28;20023;-75
2022/09/08 14:30:22;;;;;;;0.65;0.60;;;;;;;;;;5053958;28;20019;-77
2022/09/08 14:32:51;;;;;;;2.53;0.52;;;;;;;;;;5071816;28;20020;-76
2022/09/08 14:35:24;;;;;;;1.15;0.70;;;;;;;;;;5071894;28;20028;-76
2022/09/08 14:38:02;;;;;;;1.55;0.57;;;;;;;;;;5070950;28;20422;-76
2022/09/08 14:40:48;;;;;;;0.70;0.40;;;;;;;;;;5072035;28;20414;-76
2022/09/08 14:43:34;;;;;;;0.65;0.60;;;;;;;;;;5059219;28;20020;-75
2022/09/08 14:46:03;;;;;;;1.60;0.47;;;;;;;;;;5071036;28;20088;-76
2022/09/08 14:48:35;;;;;;;0.60;0.60;;;;;;;;;;5070802;28;20031;-75
2022/09/08 14:51:07;;;;;;;1.58;0.60;;;;;;;;;;5053775;28;20395;-75
2022/09/08 14:53:46;;;;;;;3.65;0.80;;;;;;;;;;5053490;28;20035;-76
2022/09/08 14:56:27;;;;;;;1.00;0.90;;;;;;;;;;5071857;28;20039;-73
2022/09/08 14:58:58;;;;;;;0.60;0.60;;;;;;;;;;5071147;28;20108;-75
2022/09/08 15:01:31;;;;;;;2.20;0.95;;;;;;;;;;5071152;28;20032;-75
2022/09/08 15:04:09;;;;;;;0.77;0.77;;;;;;;;;;5071405;28;20324;-75